Wolfcreek, Wisconsin
Current Conditions -  °F | °C
As of 3:55 AM on Wednesday 26 Nov 2014 (Local Time) from KOEO Reporting Station
Overcast Overcast  
Wind Chill: 18°   Ceiling: 6000
Heat Index: 24°   Visibility: 10mi
Dew Point: 17°   Wind: 5mph
Humidity: 75%   Direction: 70°ENE
Pressure: 30.09"   Gusts: NA
Location:  45.4182°N, 92.6295°W
Report Text: KOEO 260955Z AUTO 07004KT 10SM OVC060 M04/M08 A3009 RMK AO2 T10451084
Loading
Personal Weather Stations






























Interactive Weather Map New forecast layout! Learn more

10-Day Weather Forecast

Advertisements
Track Severe Weather on mobile